LFHP/LPY METAR and TAF weather

Enter ICAO airport designator
Station Type Date Time Source
LFHP METAR 2020/01/22 19:00 UTC NOAA

LFHP 221900Z AUTO VRB02KT CAVOK 02/M01 Q1028


Station Type Date Time Source
LFHP Decoded METAR 2020/01/22 19:00 UTC NOAA

Le Puy, France (LFHP) 45-05N 003-46E 833M
Jan 22, 2020 - 02:00 PM EST / 2020.01.22 1900 UTC
Wind: Variable at 2 MPH (2 KT):0
Visibility: greater than 7 mile(s):0
Temperature: 35 F (2 C)
Dew Point: 30 F (-1 C)
Relative Humidity: 80%
Pressure (altimeter): 30.36 in. Hg (1028 hPa)
ob: LFHP 221900Z AUTO VRB02KT CAVOK 02/M01 Q1028
cycle: 19

Station Type Date Time Source
LFHP TAF UTC NOAA

Error!

Example: see airport list